createdAt,value
2022-08-28T00:01:44.599Z,16.60
2022-08-28T00:04:46.732Z,16.55
2022-08-28T00:07:49.004Z,16.22
2022-08-28T00:10:51.127Z,16.12
2022-08-28T00:13:53.313Z,16.07
2022-08-28T00:16:58.724Z,15.92
2022-08-28T00:20:00.918Z,15.81
2022-08-28T00:23:03.275Z,15.89
2022-08-28T00:26:05.451Z,15.88
2022-08-28T00:29:08.561Z,16.10
2022-08-28T00:32:10.724Z,15.94
2022-08-28T00:35:12.888Z,15.66
2022-08-28T00:38:15.868Z,15.84
2022-08-28T00:41:18.047Z,16.01
2022-08-28T00:44:28.800Z,16.09
2022-08-28T00:47:30.988Z,15.92
2022-08-28T00:50:52.967Z,15.85
2022-08-28T00:53:59.423Z,16.00
2022-08-28T00:57:07.826Z,15.93
2022-08-28T01:00:19.910Z,15.75
2022-08-28T01:03:25.012Z,15.61
2022-08-28T01:06:28.534Z,15.64
2022-08-28T01:09:31.313Z,15.76
2022-08-28T01:12:33.533Z,15.61
2022-08-28T01:15:36.118Z,15.27
2022-08-28T01:18:39.377Z,15.13
2022-08-28T01:22:11.436Z,14.94
2022-08-28T01:25:18.439Z,15.07
2022-08-28T01:28:20.689Z,15.28
2022-08-28T01:31:22.894Z,14.76
2022-08-28T01:34:25.074Z,14.80
2022-08-28T01:37:27.216Z,14.80
2022-08-28T01:40:38.137Z,14.53
2022-08-28T01:43:41.182Z,14.44
2022-08-28T01:46:43.527Z,14.25
2022-08-28T01:49:45.747Z,14.16
2022-08-28T01:52:47.964Z,14.14
2022-08-28T01:55:50.704Z,14.50
2022-08-28T01:58:53.251Z,14.61
2022-08-28T02:01:55.510Z,14.41
2022-08-28T02:04:58.295Z,14.30
2022-08-28T02:08:02.775Z,14.11
2022-08-28T02:11:06.385Z,13.98
2022-08-28T02:14:08.724Z,14.16
2022-08-28T02:17:12.187Z,14.31
2022-08-28T02:20:14.601Z,14.28
2022-08-28T02:23:17.950Z,14.27
2022-08-28T02:26:20.873Z,14.51
2022-08-28T02:29:23.601Z,14.68
2022-08-28T02:32:26.868Z,14.70
2022-08-28T02:35:29.089Z,14.30
2022-08-28T02:38:31.187Z,14.20
2022-08-28T02:41:34.897Z,14.11
2022-08-28T02:44:37.018Z,14.19
2022-08-28T02:47:40.716Z,14.28
2022-08-28T02:50:42.778Z,13.82
2022-08-28T02:53:44.938Z,13.58
2022-08-28T02:56:47.087Z,13.49
2022-08-28T02:59:49.170Z,13.71
2022-08-28T03:02:51.453Z,13.75
2022-08-28T03:05:53.668Z,13.88
2022-08-28T03:08:55.834Z,13.99
2022-08-28T03:11:57.905Z,14.17
2022-08-28T03:15:00.086Z,13.98
2022-08-28T03:18:02.174Z,13.99
2022-08-28T03:21:10.394Z,13.70
2022-08-28T03:24:12.518Z,13.98
2022-08-28T03:27:17.794Z,14.15
2022-08-28T03:30:20.475Z,14.06
2022-08-28T03:33:22.550Z,13.58
2022-08-28T03:36:26.819Z,13.72
2022-08-28T03:39:28.910Z,14.07
2022-08-28T03:42:31.570Z,14.20
2022-08-28T03:45:34.674Z,14.54
2022-08-28T03:48:37.581Z,14.82
2022-08-28T03:51:39.665Z,14.97
2022-08-28T03:54:41.732Z,15.21
2022-08-28T03:57:44.314Z,15.34
2022-08-28T04:00:46.515Z,15.35
2022-08-28T04:03:48.907Z,15.39
2022-08-28T04:06:51.006Z,15.36
2022-08-28T04:09:53.802Z,15.24
2022-08-28T04:12:56.115Z,15.09
2022-08-28T04:16:05.176Z,15.20
2022-08-28T04:19:08.657Z,15.05
2022-08-28T04:22:10.859Z,15.37
2022-08-28T04:25:12.988Z,15.45
2022-08-28T04:28:15.062Z,15.32
2022-08-28T04:31:17.697Z,15.46
2022-08-28T04:34:19.858Z,15.44
2022-08-28T04:37:22.820Z,15.24
2022-08-28T04:40:30.118Z,15.20
2022-08-28T04:43:32.334Z,15.51
2022-08-28T04:46:34.591Z,15.35
2022-08-28T04:49:36.804Z,15.48
2022-08-28T04:52:38.894Z,15.49
2022-08-28T04:55:53.462Z,15.52
2022-08-28T04:58:56.922Z,15.56
2022-08-28T05:01:59.071Z,15.25
2022-08-28T05:05:01.163Z,14.73
2022-08-28T05:08:03.479Z,14.03
2022-08-28T05:11:33.837Z,13.45
2022-08-28T05:14:36.891Z,14.12
2022-08-28T05:17:38.991Z,14.43
2022-08-28T05:20:43.773Z,14.73
2022-08-28T05:23:46.429Z,14.94
2022-08-28T05:26:48.791Z,15.07
2022-08-28T05:29:51.357Z,15.19
2022-08-28T05:32:53.993Z,15.38
2022-08-28T05:35:56.086Z,15.51
2022-08-28T05:38:58.318Z,15.72
2022-08-28T05:42:00.426Z,15.70
2022-08-28T05:45:02.577Z,15.81
2022-08-28T05:48:04.794Z,15.70
2022-08-28T05:51:08.917Z,15.92
2022-08-28T05:54:11.646Z,15.85
2022-08-28T05:57:13.719Z,16.08
2022-08-28T06:00:15.993Z,16.13
2022-08-28T06:03:18.063Z,16.03
2022-08-28T06:06:20.133Z,16.30
2022-08-28T06:09:29.604Z,16.09
2022-08-28T06:12:32.203Z,16.12
2022-08-28T06:15:36.078Z,16.53
2022-08-28T06:18:38.449Z,16.52
2022-08-28T06:21:41.499Z,16.51
2022-08-28T06:24:43.646Z,16.61
2022-08-28T06:27:45.739Z,16.78
2022-08-28T06:31:18.059Z,17.05
2022-08-28T06:34:10.186Z,16.57
2022-08-28T06:37:12.269Z,16.88
2022-08-28T06:40:14.754Z,17.21
2022-08-28T06:43:17.710Z,17.40
2022-08-28T06:46:19.989Z,17.34
2022-08-28T06:49:22.207Z,17.17
2022-08-28T06:52:24.271Z,16.97
2022-08-28T06:55:26.427Z,17.21
2022-08-28T06:58:29.554Z,17.15
2022-08-28T07:01:34.830Z,17.31
2022-08-28T07:04:38.077Z,17.30
2022-08-28T07:07:40.246Z,17.32
2022-08-28T07:10:42.313Z,17.65
2022-08-28T07:13:45.034Z,17.68
2022-08-28T07:16:47.214Z,18.07
2022-08-28T07:19:49.387Z,18.41
2022-08-28T07:22:54.133Z,18.61
2022-08-28T07:26:06.535Z,18.80
2022-08-28T07:29:09.990Z,19.03
2022-08-28T07:32:13.383Z,19.24
2022-08-28T07:35:16.766Z,19.46
2022-08-28T07:38:19.168Z,19.62
2022-08-28T07:41:24.140Z,19.48
2022-08-28T07:44:45.024Z,19.11
2022-08-28T07:47:47.218Z,19.01
2022-08-28T07:50:49.499Z,18.93
2022-08-28T07:53:53.434Z,18.98
2022-08-28T07:56:55.767Z,19.10
2022-08-28T07:59:59.439Z,19.95
2022-08-28T08:03:01.574Z,19.46
2022-08-28T08:06:04.622Z,19.49
2022-08-28T08:09:09.149Z,19.62
2022-08-28T08:12:11.754Z,19.20
2022-08-28T08:15:14.029Z,20.23
2022-08-28T08:18:17.184Z,20.05
2022-08-28T08:21:26.051Z,20.17
2022-08-28T08:24:30.525Z,20.58
2022-08-28T08:27:33.424Z,21.05
2022-08-28T08:30:35.494Z,20.17
2022-08-28T08:33:39.368Z,20.14
2022-08-28T08:36:41.439Z,19.88
2022-08-28T08:39:43.953Z,19.76
2022-08-28T08:42:48.138Z,19.90
2022-08-28T08:45:52.119Z,20.65
2022-08-28T08:48:54.286Z,19.77
2022-08-28T08:52:25.324Z,19.85
2022-08-28T08:55:31.402Z,20.37
2022-08-28T08:58:37.119Z,20.23
2022-08-28T09:02:07.487Z,20.42
2022-08-28T09:05:15.551Z,20.07
2022-08-28T09:08:28.015Z,19.87
2022-08-28T09:11:57.109Z,21.16
2022-08-28T09:15:05.581Z,21.60
2022-08-28T09:18:28.670Z,21.16
2022-08-28T09:21:34.152Z,21.54
2022-08-28T09:24:39.290Z,21.22
2022-08-28T09:27:52.764Z,21.90
2022-08-28T09:31:05.485Z,21.72
2022-08-28T09:34:23.669Z,21.77
2022-08-28T09:37:26.576Z,21.47
2022-08-28T09:40:50.868Z,21.30
2022-08-28T09:43:53.016Z,21.36
2022-08-28T09:46:55.138Z,22.44
2022-08-28T09:50:14.307Z,22.86
2022-08-28T09:53:19.621Z,21.82
2022-08-28T09:56:30.456Z,22.35
2022-08-28T09:59:32.562Z,23.10
2022-08-28T10:02:54.322Z,23.99
2022-08-28T10:06:19.978Z,22.96
2022-08-28T10:09:36.870Z,23.73
2022-08-28T10:13:30.282Z,23.09
2022-08-28T10:16:49.103Z,23.46
2022-08-28T10:20:17.809Z,24.24
2022-08-28T10:23:28.750Z,24.01
2022-08-28T10:26:43.386Z,24.41
2022-08-28T10:29:53.730Z,25.73
2022-08-28T10:33:41.897Z,24.33
2022-08-28T10:36:44.724Z,25.44
2022-08-28T10:39:59.076Z,26.62
2022-08-28T10:43:07.392Z,26.62
2022-08-28T10:46:46.324Z,25.56
2022-08-28T10:49:50.570Z,24.18
2022-08-28T10:53:32.046Z,23.37
2022-08-28T10:56:43.195Z,24.87
2022-08-28T10:59:46.985Z,25.79
2022-08-28T11:02:55.433Z,24.11
2022-08-28T11:06:05.865Z,23.66
2022-08-28T11:09:26.767Z,23.23
2022-08-28T11:12:34.375Z,23.12
2022-08-28T11:15:37.557Z,23.54
2022-08-28T11:19:09.949Z,23.81
2022-08-28T11:22:22.666Z,23.47
2022-08-28T11:25:47.467Z,23.42
2022-08-28T11:28:50.654Z,23.25
2022-08-28T11:32:28.737Z,23.52
2022-08-28T11:35:30.715Z,23.36
2022-08-28T11:38:41.578Z,23.55
2022-08-28T11:42:11.249Z,23.86
2022-08-28T11:45:42.626Z,24.43
2022-08-28T11:48:56.656Z,24.69
2022-08-28T11:52:23.712Z,25.64
2022-08-28T11:55:55.085Z,27.23
2022-08-28T11:59:08.123Z,27.10
2022-08-28T12:02:39.953Z,26.34
2022-08-28T12:05:45.611Z,26.64
2022-08-28T12:08:51.407Z,26.48
2022-08-28T12:12:07.230Z,25.46
2022-08-28T12:15:09.594Z,24.71
2022-08-28T12:18:11.864Z,24.66
2022-08-28T12:21:17.845Z,23.99
2022-08-28T12:24:22.542Z,22.46
2022-08-28T12:27:25.141Z,22.44
2022-08-28T12:30:33.462Z,22.95
2022-08-28T12:33:47.142Z,22.46
2022-08-28T12:36:57.610Z,22.34
2022-08-28T12:40:27.968Z,22.51
2022-08-28T12:43:41.738Z,21.88
2022-08-28T12:46:49.529Z,22.81
2022-08-28T12:49:51.687Z,23.08
2022-08-28T12:52:56.859Z,23.09
2022-08-28T12:55:59.123Z,23.58
2022-08-28T12:59:38.951Z,23.45
2022-08-28T13:02:41.403Z,23.08
2022-08-28T13:05:43.802Z,23.54
2022-08-28T13:08:47.894Z,23.37
2022-08-28T13:11:51.431Z,22.97
2022-08-28T13:14:53.950Z,23.22
2022-08-28T13:17:56.264Z,23.02
2022-08-28T13:21:15.179Z,22.11
2022-08-28T13:24:27.358Z,22.08
2022-08-28T13:27:29.663Z,22.24
2022-08-28T13:30:33.852Z,22.22
2022-08-28T13:33:36.065Z,22.61
2022-08-28T13:36:50.004Z,22.74
2022-08-28T13:39:52.150Z,22.68
2022-08-28T13:43:00.915Z,22.58
2022-08-28T13:46:03.199Z,22.82
2022-08-28T13:49:05.397Z,21.95
2022-08-28T13:52:07.951Z,21.96
2022-08-28T13:55:11.683Z,21.85
2022-08-28T13:58:14.297Z,21.72
2022-08-28T14:01:19.667Z,21.52
2022-08-28T14:04:24.791Z,21.48
2022-08-28T14:07:26.948Z,21.16
2022-08-28T14:10:29.170Z,20.69
2022-08-28T14:13:31.342Z,20.71
2022-08-28T14:16:37.847Z,20.70
2022-08-28T14:19:42.197Z,20.59
2022-08-28T14:22:44.622Z,20.32
2022-08-28T14:25:47.311Z,20.24
2022-08-28T14:28:49.472Z,20.04
2022-08-28T14:31:51.874Z,20.36
2022-08-28T14:34:54.098Z,20.11
2022-08-28T14:37:56.467Z,20.06
2022-08-28T14:40:58.654Z,20.07
2022-08-28T14:44:00.911Z,19.88
2022-08-28T14:47:03.353Z,20.00
2022-08-28T14:50:06.604Z,20.11
2022-08-28T14:53:09.770Z,19.69
2022-08-28T14:56:12.071Z,19.58
2022-08-28T14:59:21.921Z,19.59
2022-08-28T15:02:26.070Z,19.97
2022-08-28T15:05:28.530Z,19.88
2022-08-28T15:08:31.034Z,19.54
2022-08-28T15:11:35.419Z,19.51
2022-08-28T15:14:37.567Z,19.48
2022-08-28T15:17:39.714Z,19.79
2022-08-28T15:20:44.844Z,19.74
2022-08-28T15:23:49.734Z,19.65
2022-08-28T15:26:52.079Z,20.04
2022-08-28T15:29:54.225Z,19.78
2022-08-28T15:32:56.339Z,19.96
2022-08-28T15:35:58.469Z,20.01
2022-08-28T15:39:19.344Z,19.94
2022-08-28T15:42:21.498Z,20.04
2022-08-28T15:45:23.668Z,20.19
2022-08-28T15:48:25.882Z,20.26
2022-08-28T15:51:28.119Z,20.19
2022-08-28T15:54:30.323Z,20.25
2022-08-28T15:57:32.839Z,20.07
2022-08-28T16:00:34.995Z,20.33
2022-08-28T16:03:38.254Z,20.09
2022-08-28T16:06:40.649Z,19.92
2022-08-28T16:09:42.814Z,20.33
2022-08-28T16:12:44.942Z,20.34
2022-08-28T16:15:52.378Z,20.15
2022-08-28T16:18:54.557Z,19.74
2022-08-28T16:21:57.118Z,20.17
2022-08-28T16:24:59.243Z,19.97
2022-08-28T16:28:01.606Z,19.88
2022-08-28T16:31:07.377Z,19.81
2022-08-28T16:34:10.931Z,19.79
2022-08-28T16:37:18.576Z,19.67
2022-08-28T16:40:23.672Z,19.55
2022-08-28T16:43:25.912Z,19.61
2022-08-28T16:46:28.226Z,19.74
2022-08-28T16:49:30.370Z,19.61
2022-08-28T16:52:32.510Z,19.43
2022-08-28T16:55:35.102Z,19.34
2022-08-28T16:58:38.101Z,19.57
2022-08-28T17:01:40.813Z,19.30
2022-08-28T17:04:44.174Z,19.40
2022-08-28T17:07:47.475Z,19.21
2022-08-28T17:10:49.603Z,19.13
2022-08-28T17:13:51.710Z,19.08
2022-08-28T17:16:53.846Z,19.47
2022-08-28T17:19:55.984Z,19.30
2022-08-28T17:22:58.220Z,18.81
2022-08-28T17:26:00.426Z,18.94
2022-08-28T17:29:03.006Z,19.37
2022-08-28T17:32:07.813Z,19.01
2022-08-28T17:35:09.946Z,18.95
2022-08-28T17:38:12.500Z,18.68
2022-08-28T17:41:14.919Z,18.52
2022-08-28T17:44:17.120Z,18.49
2022-08-28T17:47:21.750Z,18.54
2022-08-28T17:50:32.921Z,18.32
2022-08-28T17:53:35.429Z,18.15
2022-08-28T17:56:37.611Z,18.54
2022-08-28T17:59:40.239Z,18.37
2022-08-28T18:02:43.463Z,18.23
2022-08-28T18:05:46.275Z,18.33
2022-08-28T18:08:48.562Z,18.25
2022-08-28T18:11:51.394Z,18.24
2022-08-28T18:14:53.550Z,17.89
2022-08-28T18:17:55.823Z,18.03
2022-08-28T18:20:58.504Z,17.95
2022-08-28T18:24:00.622Z,17.82
2022-08-28T18:27:03.201Z,17.79
2022-08-28T18:30:05.930Z,17.75
2022-08-28T18:33:08.864Z,17.80
2022-08-28T18:36:12.571Z,17.69
2022-08-28T18:39:15.229Z,17.56
2022-08-28T18:42:25.025Z,17.78
2022-08-28T18:45:27.181Z,17.41
2022-08-28T18:48:29.379Z,17.81
2022-08-28T18:51:32.678Z,18.02
2022-08-28T18:54:34.810Z,17.56
2022-08-28T18:57:37.958Z,17.76
2022-08-28T19:00:40.197Z,17.10
2022-08-28T19:03:42.313Z,17.38
2022-08-28T19:06:44.493Z,17.34
2022-08-28T19:09:49.219Z,17.12
2022-08-28T19:12:51.371Z,17.22
2022-08-28T19:15:53.717Z,17.12
2022-08-28T19:18:55.924Z,17.20
2022-08-28T19:21:58.050Z,16.93
2022-08-28T19:25:02.603Z,16.81
2022-08-28T19:28:04.818Z,17.05
2022-08-28T19:31:07.894Z,16.77
2022-08-28T19:34:12.094Z,16.81
2022-08-28T19:37:16.211Z,16.80
2022-08-28T19:40:18.481Z,16.79
2022-08-28T19:43:20.634Z,16.74
2022-08-28T19:46:22.783Z,16.69
2022-08-28T19:49:24.946Z,16.78
2022-08-28T19:52:27.155Z,16.96
2022-08-28T19:55:29.619Z,16.78
2022-08-28T19:58:32.579Z,16.81
2022-08-28T20:01:38.146Z,16.54
2022-08-28T20:04:40.359Z,16.71
2022-08-28T20:07:42.455Z,16.59
2022-08-28T20:10:46.100Z,16.81
2022-08-28T20:13:48.497Z,16.85
2022-08-28T20:16:51.489Z,16.61
2022-08-28T20:19:53.893Z,16.84
2022-08-28T20:22:56.146Z,16.71
2022-08-28T20:25:58.470Z,16.67
2022-08-28T20:29:01.060Z,16.76
2022-08-28T20:32:04.366Z,16.91
2022-08-28T20:35:08.383Z,16.78
2022-08-28T20:38:11.148Z,16.80
2022-08-28T20:41:21.157Z,16.56
2022-08-28T20:44:23.367Z,16.31
2022-08-28T20:47:26.011Z,16.28
2022-08-28T20:50:28.123Z,16.35
2022-08-28T20:53:37.578Z,16.36
2022-08-28T20:56:40.242Z,16.29
2022-08-28T20:59:43.460Z,16.45
2022-08-28T21:02:45.586Z,16.42
2022-08-28T21:05:47.806Z,16.33
2022-08-28T21:08:51.351Z,16.34
2022-08-28T21:11:53.480Z,16.31
2022-08-28T21:14:55.631Z,16.25
2022-08-28T21:17:58.467Z,16.02
2022-08-28T21:21:04.446Z,16.25
2022-08-28T21:24:08.363Z,16.18
2022-08-28T21:27:10.463Z,16.58
2022-08-28T21:30:14.831Z,16.44
2022-08-28T21:33:16.992Z,16.59
2022-08-28T21:36:19.204Z,16.52
2022-08-28T21:39:21.291Z,16.62
2022-08-28T21:42:23.535Z,16.72
2022-08-28T21:45:25.598Z,17.01
2022-08-28T21:48:27.959Z,16.85
2022-08-28T21:51:30.042Z,16.74
2022-08-28T21:54:32.113Z,16.83
2022-08-28T21:57:34.591Z,16.67
2022-08-28T22:00:36.658Z,16.69
2022-08-28T22:03:38.727Z,16.41
2022-08-28T22:06:40.869Z,16.52
2022-08-28T22:09:43.199Z,16.63
2022-08-28T22:12:45.269Z,16.70
2022-08-28T22:15:48.006Z,16.59
2022-08-28T22:18:50.564Z,16.67
2022-08-28T22:22:11.462Z,16.39
2022-08-28T22:25:13.991Z,16.69
2022-08-28T22:28:16.145Z,16.70
2022-08-28T22:31:18.265Z,16.75
2022-08-28T22:34:20.408Z,16.92
2022-08-28T22:37:23.271Z,16.95
2022-08-28T22:40:25.528Z,17.16
2022-08-28T22:43:27.722Z,17.12
2022-08-28T22:46:30.085Z,17.01
2022-08-28T22:49:32.224Z,16.88
2022-08-28T22:52:34.373Z,16.79
2022-08-28T22:55:40.089Z,16.57
2022-08-28T22:58:45.436Z,16.60
2022-08-28T23:01:47.535Z,16.57
2022-08-28T23:04:51.317Z,16.62
2022-08-28T23:07:55.159Z,16.32
2022-08-28T23:10:59.275Z,16.55
2022-08-28T23:14:01.810Z,16.32
2022-08-28T23:17:03.965Z,16.19
2022-08-28T23:20:08.211Z,16.23
2022-08-28T23:23:12.366Z,16.01
2022-08-28T23:26:15.125Z,16.17
2022-08-28T23:29:17.326Z,15.96
2022-08-28T23:32:19.437Z,16.19
2022-08-28T23:35:22.339Z,16.05
2022-08-28T23:38:24.448Z,16.24
2022-08-28T23:41:28.310Z,16.26
2022-08-28T23:44:30.427Z,16.12
2022-08-28T23:47:33.307Z,16.16
2022-08-28T23:50:35.386Z,16.11
2022-08-28T23:53:38.927Z,16.12
2022-08-28T23:56:41.833Z,16.02
2022-08-28T23:59:44.223Z,15.85
